sensor_id;sensor_type;location;lat;lon;timestamp;pressure;altitude;pressure_sealevel;temperature;humidity
10946;BME280;5525;42.648;23.368;2023-02-28T00:00:17;95150.59;;;6.57;100.00
10946;BME280;5525;42.648;23.368;2023-02-28T00:02:44;95161.78;;;6.64;100.00
10946;BME280;5525;42.648;23.368;2023-02-28T00:05:13;95154.03;;;6.62;100.00
10946;BME280;5525;42.648;23.368;2023-02-28T00:07:40;95159.59;;;6.66;100.00
10946;BME280;5525;42.648;23.368;2023-02-28T00:10:09;95154.75;;;6.68;100.00
10946;BME280;5525;42.648;23.368;2023-02-28T00:12:36;95143.00;;;6.64;100.00
10946;BME280;5525;42.648;23.368;2023-02-28T00:15:07;95152.34;;;6.66;100.00
10946;BME280;5525;42.648;23.368;2023-02-28T00:17:34;95172.66;;;6.72;100.00
10946;BME280;5525;42.648;23.368;2023-02-28T00:20:01;95150.97;;;6.69;100.00
10946;BME280;5525;42.648;23.368;2023-02-28T00:22:38;95164.09;;;6.70;100.00
10946;BME280;5525;42.648;23.368;2023-02-28T00:25:06;95165.47;;;6.68;100.00
10946;BME280;5525;42.648;23.368;2023-02-28T00:27:34;95147.28;;;6.65;100.00
10946;BME280;5525;42.648;23.368;2023-02-28T00:30:01;95160.97;;;6.63;100.00
10946;BME280;5525;42.648;23.368;2023-02-28T00:32:29;95164.38;;;6.69;100.00
10946;BME280;5525;42.648;23.368;2023-02-28T00:34:56;95156.00;;;6.75;100.00
10946;BME280;5525;42.648;23.368;2023-02-28T00:37:23;95170.44;;;6.79;100.00
10946;BME280;5525;42.648;23.368;2023-02-28T00:39:49;95174.19;;;6.78;100.00
10946;BME280;5525;42.648;23.368;2023-02-28T00:42:16;95160.66;;;6.88;100.00
10946;BME280;5525;42.648;23.368;2023-02-28T00:44:43;95146.63;;;6.73;100.00
10946;BME280;5525;42.648;23.368;2023-02-28T00:47:09;95143.66;;;6.74;100.00
10946;BME280;5525;42.648;23.368;2023-02-28T00:49:37;95146.63;;;6.73;100.00
10946;BME280;5525;42.648;23.368;2023-02-28T00:52:04;95141.69;;;6.61;100.00
10946;BME280;5525;42.648;23.368;2023-02-28T00:54:31;95141.53;;;6.53;100.00
10946;BME280;5525;42.648;23.368;2023-02-28T00:56:58;95155.00;;;6.48;100.00
10946;BME280;5525;42.648;23.368;2023-02-28T00:59:25;95154.03;;;6.39;100.00
10946;BME280;5525;42.648;23.368;2023-02-28T01:01:51;95169.53;;;6.42;100.00
10946;BME280;5525;42.648;23.368;2023-02-28T01:04:18;95170.84;;;6.44;100.00
10946;BME280;5525;42.648;23.368;2023-02-28T01:06:46;95177.81;;;6.45;100.00
10946;BME280;5525;42.648;23.368;2023-02-28T01:09:13;95177.13;;;6.58;100.00
10946;BME280;5525;42.648;23.368;2023-02-28T01:11:41;95158.47;;;6.48;100.00
10946;BME280;5525;42.648;23.368;2023-02-28T01:14:12;95153.84;;;6.54;100.00
10946;BME280;5525;42.648;23.368;2023-02-28T01:16:39;95160.69;;;6.65;100.00
10946;BME280;5525;42.648;23.368;2023-02-28T01:19:06;95152.50;;;6.56;100.00
10946;BME280;5525;42.648;23.368;2023-02-28T01:21:32;95144.06;;;6.63;100.00
10946;BME280;5525;42.648;23.368;2023-02-28T01:24:01;95125.94;;;6.55;100.00
10946;BME280;5525;42.648;23.368;2023-02-28T01:26:28;95143.56;;;6.61;100.00
10946;BME280;5525;42.648;23.368;2023-02-28T01:28:55;95144.53;;;6.46;100.00
10946;BME280;5525;42.648;23.368;2023-02-28T01:31:22;95144.03;;;6.44;100.00
10946;BME280;5525;42.648;23.368;2023-02-28T01:33:50;95139.31;;;6.36;100.00
10946;BME280;5525;42.648;23.368;2023-02-28T01:36:19;95137.13;;;6.38;100.00
10946;BME280;5525;42.648;23.368;2023-02-28T01:38:46;95145.59;;;6.27;100.00
10946;BME280;5525;42.648;23.368;2023-02-28T01:41:17;95145.22;;;6.10;100.00
10946;BME280;5525;42.648;23.368;2023-02-28T01:43:59;95165.25;;;6.17;100.00
10946;BME280;5525;42.648;23.368;2023-02-28T01:46:28;95159.03;;;6.22;100.00
10946;BME280;5525;42.648;23.368;2023-02-28T01:49:01;95157.88;;;6.04;100.00
10946;BME280;5525;42.648;23.368;2023-02-28T01:51:33;95160.97;;;6.16;100.00
10946;BME280;5525;42.648;23.368;2023-02-28T01:54:03;95161.47;;;6.18;100.00
10946;BME280;5525;42.648;23.368;2023-02-28T01:56:34;95165.09;;;6.32;100.00
10946;BME280;5525;42.648;23.368;2023-02-28T01:59:03;95159.44;;;6.34;100.00
10946;BME280;5525;42.648;23.368;2023-02-28T02:01:30;95159.72;;;6.32;100.00
10946;BME280;5525;42.648;23.368;2023-02-28T02:03:59;95155.69;;;6.35;100.00
10946;BME280;5525;42.648;23.368;2023-02-28T02:06:30;95158.38;;;6.35;100.00
10946;BME280;5525;42.648;23.368;2023-02-28T02:08:57;95169.31;;;6.38;100.00
10946;BME280;5525;42.648;23.368;2023-02-28T02:11:24;95156.47;;;6.35;100.00
10946;BME280;5525;42.648;23.368;2023-02-28T02:14:10;95150.47;;;6.43;100.00
10946;BME280;5525;42.648;23.368;2023-02-28T02:16:49;95155.91;;;6.38;100.00
10946;BME280;5525;42.648;23.368;2023-02-28T02:19:59;95145.38;;;5.95;100.00
10946;BME280;5525;42.648;23.368;2023-02-28T02:22:54;95155.38;;;6.13;100.00
10946;BME280;5525;42.648;23.368;2023-02-28T02:25:28;95152.28;;;6.24;100.00
10946;BME280;5525;42.648;23.368;2023-02-28T02:31:26;95155.50;;;6.50;100.00
10946;BME280;5525;42.648;23.368;2023-02-28T02:34:25;95154.03;;;6.62;100.00
10946;BME280;5525;42.648;23.368;2023-02-28T02:36:58;95146.19;;;6.66;100.00
10946;BME280;5525;42.648;23.368;2023-02-28T02:39:31;95147.50;;;6.68;100.00
10946;BME280;5525;42.648;23.368;2023-02-28T02:42:11;95154.38;;;6.56;100.00
10946;BME280;5525;42.648;23.368;2023-02-28T02:44:43;95161.22;;;6.67;100.00
10946;BME280;5525;42.648;23.368;2023-02-28T02:47:15;95155.91;;;6.62;100.00
10946;BME280;5525;42.648;23.368;2023-02-28T02:49:48;95167.28;;;6.30;100.00
10946;BME280;5525;42.648;23.368;2023-02-28T02:52:18;95152.19;;;6.34;100.00
10946;BME280;5525;42.648;23.368;2023-02-28T02:54:48;95164.59;;;6.30;100.00
10946;BME280;5525;42.648;23.368;2023-02-28T02:57:22;95168.41;;;6.48;100.00
10946;BME280;5525;42.648;23.368;2023-02-28T02:59:51;95171.13;;;6.43;100.00
10946;BME280;5525;42.648;23.368;2023-02-28T03:02:20;95176.06;;;6.36;100.00
10946;BME280;5525;42.648;23.368;2023-02-28T03:04:52;95193.97;;;6.40;100.00
10946;BME280;5525;42.648;23.368;2023-02-28T03:07:20;95192.38;;;6.63;100.00
10946;BME280;5525;42.648;23.368;2023-02-28T03:09:51;95194.75;;;6.64;100.00
10946;BME280;5525;42.648;23.368;2023-02-28T03:12:19;95195.56;;;6.65;100.00
10946;BME280;5525;42.648;23.368;2023-02-28T03:14:55;95195.81;;;6.68;100.00
10946;BME280;5525;42.648;23.368;2023-02-28T03:17:36;95197.94;;;6.43;100.00
10946;BME280;5525;42.648;23.368;2023-02-28T03:20:16;95198.38;;;6.55;100.00
10946;BME280;5525;42.648;23.368;2023-02-28T03:22:52;95199.78;;;6.71;100.00
10946;BME280;5525;42.648;23.368;2023-02-28T03:25:29;95208.75;;;6.85;100.00
10946;BME280;5525;42.648;23.368;2023-02-28T03:28:05;95209.56;;;6.85;100.00
10946;BME280;5525;42.648;23.368;2023-02-28T03:30:40;95217.91;;;6.84;100.00
10946;BME280;5525;42.648;23.368;2023-02-28T03:33:10;95208.19;;;6.88;100.00
10946;BME280;5525;42.648;23.368;2023-02-28T03:35:42;95215.94;;;6.89;100.00
10946;BME280;5525;42.648;23.368;2023-02-28T03:38:13;95216.94;;;6.93;100.00
10946;BME280;5525;42.648;23.368;2023-02-28T03:40:45;95213.41;;;6.98;100.00
10946;BME280;5525;42.648;23.368;2023-02-28T03:43:19;95211.25;;;7.00;100.00
10946;BME280;5525;42.648;23.368;2023-02-28T03:45:49;95225.25;;;6.97;100.00
10946;BME280;5525;42.648;23.368;2023-02-28T03:48:19;95223.41;;;6.93;100.00
10946;BME280;5525;42.648;23.368;2023-02-28T03:50:52;95220.59;;;6.84;100.00
10946;BME280;5525;42.648;23.368;2023-02-28T03:53:25;95224.63;;;6.81;100.00
10946;BME280;5525;42.648;23.368;2023-02-28T03:55:59;95217.13;;;6.78;100.00
10946;BME280;5525;42.648;23.368;2023-02-28T03:58:30;95216.97;;;6.70;100.00
10946;BME280;5525;42.648;23.368;2023-02-28T04:01:02;95226.56;;;6.76;100.00
10946;BME280;5525;42.648;23.368;2023-02-28T04:03:34;95230.28;;;6.56;100.00
10946;BME280;5525;42.648;23.368;2023-02-28T04:06:04;95234.88;;;6.79;100.00
10946;BME280;5525;42.648;23.368;2023-02-28T04:08:32;95223.47;;;6.87;100.00
10946;BME280;5525;42.648;23.368;2023-02-28T04:11:02;95216.00;;;6.84;100.00
10946;BME280;5525;42.648;23.368;2023-02-28T04:13:31;95216.13;;;6.74;100.00
10946;BME280;5525;42.648;23.368;2023-02-28T04:15:58;95222.63;;;6.68;100.00
10946;BME280;5525;42.648;23.368;2023-02-28T04:18:24;95219.75;;;6.60;100.00
10946;BME280;5525;42.648;23.368;2023-02-28T04:20:51;95209.13;;;6.55;100.00
10946;BME280;5525;42.648;23.368;2023-02-28T04:23:19;95228.72;;;6.50;100.00
10946;BME280;5525;42.648;23.368;2023-02-28T04:25:46;95215.16;;;6.42;100.00
10946;BME280;5525;42.648;23.368;2023-02-28T04:28:12;95214.53;;;6.50;100.00
10946;BME280;5525;42.648;23.368;2023-02-28T04:30:39;95219.59;;;6.51;100.00
10946;BME280;5525;42.648;23.368;2023-02-28T04:33:06;95213.44;;;6.51;100.00
10946;BME280;5525;42.648;23.368;2023-02-28T04:35:32;95218.56;;;6.47;100.00
10946;BME280;5525;42.648;23.368;2023-02-28T04:37:59;95228.28;;;6.43;100.00
10946;BME280;5525;42.648;23.368;2023-02-28T04:40:27;95217.09;;;6.36;100.00
10946;BME280;5525;42.648;23.368;2023-02-28T04:42:54;95235.34;;;6.34;100.00
10946;BME280;5525;42.648;23.368;2023-02-28T04:45:20;95235.19;;;6.49;100.00
10946;BME280;5525;42.648;23.368;2023-02-28T04:47:47;95247.28;;;6.47;100.00
10946;BME280;5525;42.648;23.368;2023-02-28T04:50:14;95233.09;;;6.41;100.00
10946;BME280;5525;42.648;23.368;2023-02-28T04:52:41;95237.91;;;6.44;100.00
10946;BME280;5525;42.648;23.368;2023-02-28T04:55:08;95238.88;;;6.53;100.00
10946;BME280;5525;42.648;23.368;2023-02-28T04:57:37;95247.78;;;6.49;100.00
10946;BME280;5525;42.648;23.368;2023-02-28T05:00:04;95238.63;;;6.55;100.00
10946;BME280;5525;42.648;23.368;2023-02-28T05:02:36;95247.56;;;6.45;100.00
10946;BME280;5525;42.648;23.368;2023-02-28T05:05:03;95236.88;;;6.40;100.00
10946;BME280;5525;42.648;23.368;2023-02-28T05:07:30;95253.00;;;6.35;100.00
10946;BME280;5525;42.648;23.368;2023-02-28T05:09:57;95245.50;;;6.37;100.00
10946;BME280;5525;42.648;23.368;2023-02-28T05:12:24;95249.59;;;6.30;100.00
10946;BME280;5525;42.648;23.368;2023-02-28T05:14:52;95246.22;;;6.19;100.00
10946;BME280;5525;42.648;23.368;2023-02-28T05:17:18;95257.22;;;6.18;100.00
10946;BME280;5525;42.648;23.368;2023-02-28T05:19:45;95258.66;;;6.34;100.00
10946;BME280;5525;42.648;23.368;2023-02-28T05:22:13;95258.28;;;6.45;100.00
10946;BME280;5525;42.648;23.368;2023-02-28T05:24:41;95259.59;;;6.48;100.00
10946;BME280;5525;42.648;23.368;2023-02-28T05:27:08;95262.25;;;6.53;100.00
10946;BME280;5525;42.648;23.368;2023-02-28T05:29:35;95262.47;;;6.56;100.00
10946;BME280;5525;42.648;23.368;2023-02-28T05:32:08;95268.00;;;6.65;100.00
10946;BME280;5525;42.648;23.368;2023-02-28T05:34:36;95264.03;;;6.62;100.00
10946;BME280;5525;42.648;23.368;2023-02-28T05:37:03;95267.28;;;6.59;100.00
10946;BME280;5525;42.648;23.368;2023-02-28T05:39:30;95275.94;;;6.75;100.00
10946;BME280;5525;42.648;23.368;2023-02-28T05:41:57;95269.97;;;6.83;100.00
10946;BME280;5525;42.648;23.368;2023-02-28T05:44:24;95285.50;;;6.86;100.00
10946;BME280;5525;42.648;23.368;2023-02-28T05:46:51;95272.66;;;6.83;100.00
10946;BME280;5525;42.648;23.368;2023-02-28T05:49:19;95281.59;;;6.73;100.00
10946;BME280;5525;42.648;23.368;2023-02-28T05:51:45;95296.88;;;7.02;100.00
10946;BME280;5525;42.648;23.368;2023-02-28T05:54:12;95288.63;;;7.17;100.00
10946;BME280;5525;42.648;23.368;2023-02-28T05:56:39;95297.78;;;7.16;100.00
10946;BME280;5525;42.648;23.368;2023-02-28T05:59:09;95295.53;;;7.23;100.00
10946;BME280;5525;42.648;23.368;2023-02-28T06:01:37;95292.31;;;7.26;100.00
10946;BME280;5525;42.648;23.368;2023-02-28T06:04:06;95282.56;;;7.30;100.00
10946;BME280;5525;42.648;23.368;2023-02-28T06:06:34;95285.50;;;7.33;100.00
10946;BME280;5525;42.648;23.368;2023-02-28T06:09:03;95284.34;;;7.39;100.00
10946;BME280;5525;42.648;23.368;2023-02-28T06:11:30;95285.97;;;7.35;100.00
10946;BME280;5525;42.648;23.368;2023-02-28T06:13:58;95281.00;;;7.47;100.00
10946;BME280;5525;42.648;23.368;2023-02-28T06:16:26;95282.81;;;7.52;100.00
10946;BME280;5525;42.648;23.368;2023-02-28T06:18:53;95280.28;;;7.60;100.00
10946;BME280;5525;42.648;23.368;2023-02-28T06:21:21;95281.50;;;7.68;100.00
10946;BME280;5525;42.648;23.368;2023-02-28T06:23:49;95279.63;;;7.68;100.00
10946;BME280;5525;42.648;23.368;2023-02-28T06:26:16;95281.38;;;7.78;100.00
10946;BME280;5525;42.648;23.368;2023-02-28T06:28:43;95281.81;;;7.85;100.00
10946;BME280;5525;42.648;23.368;2023-02-28T06:31:12;95288.56;;;7.82;100.00
10946;BME280;5525;42.648;23.368;2023-02-28T06:33:41;95288.06;;;7.80;100.00
10946;BME280;5525;42.648;23.368;2023-02-28T06:36:09;95289.00;;;7.71;100.00
10946;BME280;5525;42.648;23.368;2023-02-28T06:38:36;95288.41;;;7.74;100.00
10946;BME280;5525;42.648;23.368;2023-02-28T06:41:05;95287.63;;;7.73;100.00
10946;BME280;5525;42.648;23.368;2023-02-28T06:43:35;95290.69;;;7.85;100.00
10946;BME280;5525;42.648;23.368;2023-02-28T06:46:04;95298.34;;;7.92;100.00
10946;BME280;5525;42.648;23.368;2023-02-28T06:48:31;95297.63;;;8.05;100.00
10946;BME280;5525;42.648;23.368;2023-02-28T06:51:05;95301.91;;;8.06;100.00
10946;BME280;5525;42.648;23.368;2023-02-28T06:53:32;95308.69;;;8.03;100.00
10946;BME280;5525;42.648;23.368;2023-02-28T06:55:59;95298.94;;;8.07;100.00
10946;BME280;5525;42.648;23.368;2023-02-28T06:58:27;95313.81;;;8.18;100.00
10946;BME280;5525;42.648;23.368;2023-02-28T07:00:53;95312.38;;;8.26;100.00
10946;BME280;5525;42.648;23.368;2023-02-28T07:03:21;95302.84;;;8.33;100.00
10946;BME280;5525;42.648;23.368;2023-02-28T07:05:48;95312.31;;;8.31;100.00
10946;BME280;5525;42.648;23.368;2023-02-28T07:08:16;95304.88;;;8.41;100.00
10946;BME280;5525;42.648;23.368;2023-02-28T07:10:43;95305.53;;;8.33;100.00
10946;BME280;5525;42.648;23.368;2023-02-28T07:13:10;95308.06;;;8.43;100.00
10946;BME280;5525;42.648;23.368;2023-02-28T07:15:38;95305.72;;;8.55;100.00
10946;BME280;5525;42.648;23.368;2023-02-28T07:18:05;95296.94;;;8.50;100.00
10946;BME280;5525;42.648;23.368;2023-02-28T07:20:31;95301.50;;;8.49;100.00
10946;BME280;5525;42.648;23.368;2023-02-28T07:22:58;95300.53;;;8.59;100.00
10946;BME280;5525;42.648;23.368;2023-02-28T07:25:26;95308.13;;;8.71;100.00
10946;BME280;5525;42.648;23.368;2023-02-28T07:27:54;95304.19;;;8.95;100.00
10946;BME280;5525;42.648;23.368;2023-02-28T07:30:21;95304.91;;;9.14;100.00
10946;BME280;5525;42.648;23.368;2023-02-28T07:32:49;95295.78;;;9.64;100.00
10946;BME280;5525;42.648;23.368;2023-02-28T07:35:16;95293.97;;;9.87;100.00
10946;BME280;5525;42.648;23.368;2023-02-28T07:37:43;95290.22;;;10.32;100.00
10946;BME280;5525;42.648;23.368;2023-02-28T07:40:11;95296.44;;;10.55;100.00
10946;BME280;5525;42.648;23.368;2023-02-28T07:42:38;95294.00;;;11.06;100.00
10946;BME280;5525;42.648;23.368;2023-02-28T07:45:07;95293.00;;;11.41;100.00
10946;BME280;5525;42.648;23.368;2023-02-28T07:47:34;95296.47;;;11.63;100.00
10946;BME280;5525;42.648;23.368;2023-02-28T07:50:02;95280.44;;;11.93;100.00
10946;BME280;5525;42.648;23.368;2023-02-28T07:52:29;95284.06;;;11.79;100.00
10946;BME280;5525;42.648;23.368;2023-02-28T07:54:55;95289.28;;;11.59;100.00
10946;BME280;5525;42.648;23.368;2023-02-28T07:57:22;95289.72;;;11.52;100.00
10946;BME280;5525;42.648;23.368;2023-02-28T07:59:49;95280.75;;;11.74;100.00
10946;BME280;5525;42.648;23.368;2023-02-28T08:02:17;95275.47;;;11.69;100.00
10946;BME280;5525;42.648;23.368;2023-02-28T08:04:44;95281.94;;;11.59;100.00
10946;BME280;5525;42.648;23.368;2023-02-28T08:07:14;95279.19;;;11.42;100.00
10946;BME280;5525;42.648;23.368;2023-02-28T08:09:41;95292.97;;;11.63;100.00
10946;BME280;5525;42.648;23.368;2023-02-28T08:12:09;95291.88;;;11.81;100.00
10946;BME280;5525;42.648;23.368;2023-02-28T08:14:37;95277.09;;;11.78;100.00
10946;BME280;5525;42.648;23.368;2023-02-28T08:17:05;95279.66;;;12.01;100.00
10946;BME280;5525;42.648;23.368;2023-02-28T08:19:31;95289.69;;;12.26;100.00
10946;BME280;5525;42.648;23.368;2023-02-28T08:21:58;95277.25;;;12.08;100.00
10946;BME280;5525;42.648;23.368;2023-02-28T08:24:27;95278.88;;;12.17;100.00
10946;BME280;5525;42.648;23.368;2023-02-28T08:26:53;95279.97;;;11.99;100.00
10946;BME280;5525;42.648;23.368;2023-02-28T08:29:20;95285.34;;;11.73;100.00
10946;BME280;5525;42.648;23.368;2023-02-28T08:31:47;95278.38;;;11.89;100.00
10946;BME280;5525;42.648;23.368;2023-02-28T08:34:15;95286.97;;;11.92;100.00
10946;BME280;5525;42.648;23.368;2023-02-28T08:36:42;95296.69;;;11.93;100.00
10946;BME280;5525;42.648;23.368;2023-02-28T08:39:10;95298.41;;;11.88;100.00
10946;BME280;5525;42.648;23.368;2023-02-28T08:41:38;95290.28;;;11.88;100.00
10946;BME280;5525;42.648;23.368;2023-02-28T08:44:05;95289.34;;;12.10;100.00
10946;BME280;5525;42.648;23.368;2023-02-28T08:46:31;95285.69;;;11.89;100.00
10946;BME280;5525;42.648;23.368;2023-02-28T08:48:58;95288.72;;;12.13;100.00
10946;BME280;5525;42.648;23.368;2023-02-28T08:51:26;95290.00;;;12.24;100.00
10946;BME280;5525;42.648;23.368;2023-02-28T08:53:53;95294.13;;;12.47;100.00
10946;BME280;5525;42.648;23.368;2023-02-28T08:56:21;95299.56;;;12.56;100.00
10946;BME280;5525;42.648;23.368;2023-02-28T08:58:50;95291.44;;;12.30;100.00
10946;BME280;5525;42.648;23.368;2023-02-28T09:01:18;95293.50;;;12.25;100.00
10946;BME280;5525;42.648;23.368;2023-02-28T09:03:47;95293.19;;;12.26;100.00
10946;BME280;5525;42.648;23.368;2023-02-28T09:06:16;95298.78;;;12.13;100.00
10946;BME280;5525;42.648;23.368;2023-02-28T09:08:43;95293.69;;;12.11;100.00
10946;BME280;5525;42.648;23.368;2023-02-28T09:11:10;95289.69;;;11.92;100.00
10946;BME280;5525;42.648;23.368;2023-02-28T09:13:37;95291.38;;;11.70;100.00
10946;BME280;5525;42.648;23.368;2023-02-28T09:16:07;95286.59;;;11.67;100.00
10946;BME280;5525;42.648;23.368;2023-02-28T09:18:35;95295.38;;;11.81;100.00
10946;BME280;5525;42.648;23.368;2023-02-28T09:21:03;95282.38;;;12.09;100.00
10946;BME280;5525;42.648;23.368;2023-02-28T09:23:30;95298.78;;;12.30;100.00
10946;BME280;5525;42.648;23.368;2023-02-28T09:25:56;95291.13;;;12.23;100.00
10946;BME280;5525;42.648;23.368;2023-02-28T09:28:23;95290.78;;;12.76;100.00
10946;BME280;5525;42.648;23.368;2023-02-28T09:30:52;95290.47;;;12.60;100.00
10946;BME280;5525;42.648;23.368;2023-02-28T09:33:21;95278.34;;;12.58;100.00
10946;BME280;5525;42.648;23.368;2023-02-28T09:35:48;95286.50;;;12.41;100.00
10946;BME280;5525;42.648;23.368;2023-02-28T09:38:15;95289.97;;;12.75;100.00
10946;BME280;5525;42.648;23.368;2023-02-28T09:40:48;95292.69;;;13.30;100.00
10946;BME280;5525;42.648;23.368;2023-02-28T09:43:16;95281.72;;;13.26;100.00
10946;BME280;5525;42.648;23.368;2023-02-28T09:45:48;95285.31;;;13.01;100.00
10946;BME280;5525;42.648;23.368;2023-02-28T09:48:23;95283.53;;;12.97;100.00
10946;BME280;5525;42.648;23.368;2023-02-28T09:51:02;95281.81;;;13.38;100.00
10946;BME280;5525;42.648;23.368;2023-02-28T09:53:32;95286.44;;;13.38;100.00
10946;BME280;5525;42.648;23.368;2023-02-28T09:56:02;95275.00;;;13.62;100.00
10946;BME280;5525;42.648;23.368;2023-02-28T09:58:36;95279.84;;;13.47;100.00
10946;BME280;5525;42.648;23.368;2023-02-28T10:01:09;95276.16;;;13.52;100.00
10946;BME280;5525;42.648;23.368;2023-02-28T10:03:43;95277.63;;;13.79;100.00
10946;BME280;5525;42.648;23.368;2023-02-28T10:06:16;95262.00;;;14.17;100.00
10946;BME280;5525;42.648;23.368;2023-02-28T10:08:50;95272.81;;;14.46;100.00
10946;BME280;5525;42.648;23.368;2023-02-28T10:11:20;95258.91;;;14.06;100.00
10946;BME280;5525;42.648;23.368;2023-02-28T10:13:54;95264.97;;;13.83;100.00
10946;BME280;5525;42.648;23.368;2023-02-28T10:16:34;95259.34;;;13.88;100.00
10946;BME280;5525;42.648;23.368;2023-02-28T10:19:05;95268.41;;;13.71;100.00
10946;BME280;5525;42.648;23.368;2023-02-28T10:21:37;95250.22;;;14.54;100.00
10946;BME280;5525;42.648;23.368;2023-02-28T10:24:14;95255.06;;;14.48;100.00
10946;BME280;5525;42.648;23.368;2023-02-28T10:26:44;95257.16;;;14.22;100.00
10946;BME280;5525;42.648;23.368;2023-02-28T10:29:11;95248.47;;;14.37;100.00
10946;BME280;5525;42.648;23.368;2023-02-28T10:31:38;95249.75;;;14.52;100.00
10946;BME280;5525;42.648;23.368;2023-02-28T10:34:07;95246.78;;;15.22;100.00
10946;BME280;5525;42.648;23.368;2023-02-28T10:36:38;95233.94;;;16.46;100.00
10946;BME280;5525;42.648;23.368;2023-02-28T10:39:35;95222.50;;;18.66;99.38
10946;BME280;5525;42.648;23.368;2023-02-28T10:42:03;95218.00;;;20.38;86.41
10946;BME280;5525;42.648;23.368;2023-02-28T10:44:29;95223.44;;;20.08;81.10
10946;BME280;5525;42.648;23.368;2023-02-28T10:46:56;95206.53;;;19.77;84.94
10946;BME280;5525;42.648;23.368;2023-02-28T10:49:27;95215.66;;;18.94;87.88
10946;BME280;5525;42.648;23.368;2023-02-28T10:51:55;95209.88;;;18.99;88.45
10946;BME280;5525;42.648;23.368;2023-02-28T10:54:26;95211.09;;;19.43;83.86
10946;BME280;5525;42.648;23.368;2023-02-28T10:57:16;95207.09;;;18.77;88.94
10946;BME280;5525;42.648;23.368;2023-02-28T10:59:44;95197.09;;;18.84;90.63
10946;BME280;5525;42.648;23.368;2023-02-28T11:02:30;95203.50;;;19.14;87.16
10946;BME280;5525;42.648;23.368;2023-02-28T11:04:59;95195.13;;;18.08;91.82
10946;BME280;5525;42.648;23.368;2023-02-28T11:07:26;95204.00;;;16.34;100.00
10946;BME280;5525;42.648;23.368;2023-02-28T11:09:55;95190.63;;;15.78;100.00
10946;BME280;5525;42.648;23.368;2023-02-28T11:12:25;95186.59;;;16.11;100.00
10946;BME280;5525;42.648;23.368;2023-02-28T11:14:54;95189.94;;;16.20;100.00
10946;BME280;5525;42.648;23.368;2023-02-28T11:17:24;95188.56;;;16.97;100.00
10946;BME280;5525;42.648;23.368;2023-02-28T11:19:53;95185.41;;;17.92;99.81
10946;BME280;5525;42.648;23.368;2023-02-28T11:22:24;95190.06;;;17.26;100.00
10946;BME280;5525;42.648;23.368;2023-02-28T11:24:55;95179.13;;;16.63;100.00
10946;BME280;5525;42.648;23.368;2023-02-28T11:27:40;95189.25;;;17.41;100.00
10946;BME280;5525;42.648;23.368;2023-02-28T11:30:27;95184.34;;;17.15;100.00
10946;BME280;5525;42.648;23.368;2023-02-28T11:32:54;95186.63;;;16.27;100.00
10946;BME280;5525;42.648;23.368;2023-02-28T11:35:24;95186.59;;;15.48;100.00
10946;BME280;5525;42.648;23.368;2023-02-28T11:37:53;95174.31;;;14.93;100.00
10946;BME280;5525;42.648;23.368;2023-02-28T11:40:27;95180.06;;;14.68;100.00
10946;BME280;5525;42.648;23.368;2023-02-28T11:43:02;95172.72;;;15.04;100.00
10946;BME280;5525;42.648;23.368;2023-02-28T11:45:45;95169.41;;;15.83;100.00
10946;BME280;5525;42.648;23.368;2023-02-28T11:48:20;95173.78;;;16.27;100.00
10946;BME280;5525;42.648;23.368;2023-02-28T11:51:06;95161.97;;;16.78;100.00
10946;BME280;5525;42.648;23.368;2023-02-28T11:54:03;95163.75;;;16.87;100.00
10946;BME280;5525;42.648;23.368;2023-02-28T11:56:37;95168.06;;;16.88;100.00
10946;BME280;5525;42.648;23.368;2023-02-28T11:59:15;95165.59;;;17.14;100.00
10946;BME280;5525;42.648;23.368;2023-02-28T12:02:05;95161.69;;;16.52;100.00
10946;BME280;5525;42.648;23.368;2023-02-28T12:04:45;95172.13;;;16.50;100.00
10946;BME280;5525;42.648;23.368;2023-02-28T12:07:20;95165.75;;;15.79;100.00
10946;BME280;5525;42.648;23.368;2023-02-28T12:10:00;95155.97;;;15.90;100.00
10946;BME280;5525;42.648;23.368;2023-02-28T12:12:38;95163.63;;;16.40;100.00
10946;BME280;5525;42.648;23.368;2023-02-28T12:15:24;95154.06;;;15.91;100.00
10946;BME280;5525;42.648;23.368;2023-02-28T12:18:03;95156.91;;;15.94;100.00
10946;BME280;5525;42.648;23.368;2023-02-28T12:20:35;95154.59;;;15.57;100.00
10946;BME280;5525;42.648;23.368;2023-02-28T12:23:29;95154.25;;;15.10;100.00
10946;BME280;5525;42.648;23.368;2023-02-28T12:26:07;95161.88;;;15.41;100.00
10946;BME280;5525;42.648;23.368;2023-02-28T12:28:42;95160.59;;;14.90;100.00
10946;BME280;5525;42.648;23.368;2023-02-28T12:31:17;95156.97;;;15.10;100.00
10946;BME280;5525;42.648;23.368;2023-02-28T12:33:50;95156.06;;;15.18;100.00
10946;BME280;5525;42.648;23.368;2023-02-28T12:36:19;95156.19;;;15.34;100.00
10946;BME280;5525;42.648;23.368;2023-02-28T12:38:53;95166.88;;;15.39;100.00
10946;BME280;5525;42.648;23.368;2023-02-28T12:41:26;95159.53;;;14.70;100.00
10946;BME280;5525;42.648;23.368;2023-02-28T12:43:58;95164.41;;;14.53;100.00
10946;BME280;5525;42.648;23.368;2023-02-28T12:46:33;95154.91;;;14.26;100.00
10946;BME280;5525;42.648;23.368;2023-02-28T12:49:06;95160.16;;;14.11;100.00
10946;BME280;5525;42.648;23.368;2023-02-28T12:51:35;95149.16;;;14.28;100.00
10946;BME280;5525;42.648;23.368;2023-02-28T12:54:12;95149.47;;;14.06;100.00
10946;BME280;5525;42.648;23.368;2023-02-28T12:56:46;95149.91;;;13.75;100.00
10946;BME280;5525;42.648;23.368;2023-02-28T12:59:22;95144.66;;;13.91;100.00
10946;BME280;5525;42.648;23.368;2023-02-28T13:05:05;95152.91;;;13.82;100.00
10946;BME280;5525;42.648;23.368;2023-02-28T13:07:56;95153.25;;;14.13;100.00
10946;BME280;5525;42.648;23.368;2023-02-28T13:10:38;95153.56;;;13.79;100.00
10946;BME280;5525;42.648;23.368;2023-02-28T13:13:14;95149.38;;;13.61;100.00
10946;BME280;5525;42.648;23.368;2023-02-28T13:15:57;95142.09;;;13.32;100.00
10946;BME280;5525;42.648;23.368;2023-02-28T13:18:30;95143.66;;;13.33;100.00